createdAt,value
2022-12-18T10:03:41.180Z,38.97
2022-12-18T10:06:10.258Z,38.42
2022-12-18T10:08:45.227Z,38.72
2022-12-18T10:11:22.668Z,37.72
2022-12-18T10:13:51.604Z,37.56
2022-12-18T10:16:20.814Z,38.16
2022-12-18T10:19:11.298Z,36.51
2022-12-18T10:21:42.402Z,36.78
2022-12-18T10:24:14.482Z,35.77
2022-12-18T10:26:42.042Z,41.57
2022-12-18T10:29:11.247Z,38.23
2022-12-18T10:31:39.805Z,35.93
2022-12-18T10:34:11.650Z,34.27
2022-12-18T10:36:39.059Z,34.48
2022-12-18T10:39:16.590Z,33.69
2022-12-18T10:41:46.413Z,34.69
2022-12-18T10:44:19.932Z,34.24
2022-12-18T10:46:47.565Z,33.41
2022-12-18T10:49:26.697Z,33.36
2022-12-18T10:52:04.947Z,34.17
2022-12-18T10:54:34.505Z,34.64
2022-12-18T10:57:16.309Z,36.39
2022-12-18T10:59:51.746Z,33.73
2022-12-18T11:02:29.728Z,34.44
2022-12-18T11:04:58.615Z,34.00
2022-12-18T11:07:25.926Z,35.14
2022-12-18T11:10:01.128Z,35.24
2022-12-18T11:12:29.208Z,34.79
2022-12-18T11:14:59.293Z,34.35
2022-12-18T11:17:29.152Z,34.09
2022-12-18T11:19:58.415Z,32.95
2022-12-18T11:22:26.769Z,33.18
2022-12-18T11:25:29.462Z,31.38
2022-12-18T11:27:42.433Z,33.58
2022-12-18T11:30:09.906Z,32.72
2022-12-18T11:32:37.320Z,32.49
2022-12-18T11:35:13.182Z,33.65
2022-12-18T11:37:41.014Z,30.49
2022-12-18T11:40:11.408Z,29.53
2022-12-18T11:42:40.848Z,29.35
2022-12-18T11:45:21.547Z,29.91
2022-12-18T11:47:51.188Z,29.52
2022-12-18T11:50:22.005Z,29.96
2022-12-18T11:52:55.977Z,30.85
2022-12-18T11:55:32.119Z,30.08
2022-12-18T11:58:06.057Z,29.18
2022-12-18T12:00:33.293Z,29.71
2022-12-18T12:03:18.784Z,30.10
2022-12-18T12:06:10.150Z,29.62
2022-12-18T12:08:43.239Z,30.62
2022-12-18T12:11:14.211Z,31.52
2022-12-18T12:13:46.392Z,30.82
2022-12-18T12:16:18.275Z,31.15
2022-12-18T12:18:53.873Z,32.20
2022-12-18T12:21:24.897Z,30.24
2022-12-18T12:23:54.351Z,30.45
2022-12-18T12:26:24.454Z,31.91
2022-12-18T12:29:01.374Z,30.74
2022-12-18T12:31:41.130Z,31.69
2022-12-18T12:34:16.182Z,30.11
2022-12-18T12:36:52.479Z,29.32
2022-12-18T12:39:22.878Z,29.00
2022-12-18T12:41:50.358Z,29.40
2022-12-18T12:44:19.930Z,29.50
2022-12-18T12:46:47.718Z,29.67
2022-12-18T12:49:17.158Z,28.18
2022-12-18T12:51:47.138Z,28.73
2022-12-18T12:54:19.934Z,29.21
2022-12-18T12:56:49.440Z,29.07
2022-12-18T12:59:19.779Z,28.61
2022-12-18T13:01:51.164Z,28.78
2022-12-18T13:04:22.985Z,29.97
2022-12-18T13:06:55.794Z,28.81
2022-12-18T13:09:23.173Z,28.83
2022-12-18T13:11:53.682Z,27.42
2022-12-18T13:14:27.983Z,27.54
2022-12-18T13:17:33.894Z,27.87
2022-12-18T13:20:08.607Z,27.54
2022-12-18T13:22:37.947Z,26.90
2022-12-18T13:25:20.689Z,27.54
2022-12-18T13:28:16.161Z,26.26
2022-12-18T13:30:55.630Z,27.47
2022-12-18T13:34:24.672Z,26.45
2022-12-18T13:36:36.141Z,27.26
2022-12-18T13:39:26.696Z,26.38
2022-12-18T13:42:38.003Z,25.84
2022-12-18T13:45:24.314Z,26.40
2022-12-18T13:47:51.592Z,25.81
2022-12-18T13:50:23.245Z,26.35
2022-12-18T13:52:53.055Z,26.38
2022-12-18T13:55:21.936Z,25.87
2022-12-18T13:57:49.633Z,26.35
2022-12-18T14:00:25.823Z,26.22
2022-12-18T14:02:53.699Z,26.71
2022-12-18T14:05:24.081Z,28.26
2022-12-18T14:07:51.871Z,27.05
2022-12-18T14:13:11.042Z,26.47
2022-12-18T14:15:41.256Z,27.45
2022-12-18T14:18:18.076Z,26.18
2022-12-18T14:20:50.734Z,26.75
2022-12-18T14:23:30.555Z,26.69
2022-12-18T14:26:03.764Z,26.92
2022-12-18T14:28:33.172Z,27.51
2022-12-18T14:31:00.563Z,28.38
2022-12-18T14:33:28.363Z,29.50
2022-12-18T14:35:59.304Z,29.30
2022-12-18T14:38:30.520Z,30.40
2022-12-18T14:40:59.692Z,31.07
2022-12-18T14:43:27.600Z,31.59
2022-12-18T14:45:56.224Z,33.21
2022-12-18T14:48:25.798Z,33.66
2022-12-18T14:50:57.649Z,35.03
2022-12-18T14:53:27.425Z,36.17
2022-12-18T14:55:54.724Z,35.09
2022-12-18T14:58:24.553Z,36.67
2022-12-18T15:00:53.794Z,36.45
2022-12-18T15:03:22.122Z,36.32
2022-12-18T15:05:51.932Z,35.41
2022-12-18T15:08:31.091Z,36.44
2022-12-18T15:10:58.373Z,36.69
2022-12-18T15:13:27.105Z,36.70
2022-12-18T15:15:54.463Z,34.87
2022-12-18T15:18:23.800Z,36.05
2022-12-18T15:20:52.001Z,35.09
2022-12-18T15:23:20.617Z,34.18
2022-12-18T15:25:48.629Z,34.52
2022-12-18T15:28:19.414Z,35.32
2022-12-18T15:31:04.837Z,34.17
2022-12-18T15:33:33.563Z,34.59
2022-12-18T15:36:01.115Z,35.23
2022-12-18T15:38:28.504Z,38.01
2022-12-18T15:40:55.789Z,36.66
2022-12-18T15:43:23.344Z,36.12
2022-12-18T15:45:50.586Z,35.54
2022-12-18T15:48:22.098Z,35.51
2022-12-18T15:50:49.879Z,37.32
2022-12-18T15:53:17.246Z,37.68
2022-12-18T15:55:44.580Z,35.71
2022-12-18T15:58:11.935Z,35.52
2022-12-18T16:00:41.181Z,37.28
2022-12-18T16:03:09.503Z,37.53
2022-12-18T16:05:38.292Z,36.95
2022-12-18T16:08:05.620Z,38.44
2022-12-18T16:10:32.889Z,38.84
2022-12-18T16:13:00.241Z,37.41
2022-12-18T16:15:27.595Z,38.03
2022-12-18T16:17:54.988Z,38.76
2022-12-18T16:20:22.763Z,39.77
2022-12-18T16:22:51.645Z,39.70
2022-12-18T16:25:20.322Z,39.33
2022-12-18T16:27:47.670Z,41.02
2022-12-18T16:30:16.371Z,41.95
2022-12-18T16:32:43.667Z,45.67
2022-12-18T16:35:12.022Z,40.55
2022-12-18T16:37:39.400Z,39.43
2022-12-18T16:40:09.944Z,40.04
2022-12-18T16:42:37.377Z,39.94
2022-12-18T16:45:05.423Z,40.37
2022-12-18T16:47:32.799Z,41.15
2022-12-18T16:50:00.124Z,41.19
2022-12-18T16:52:27.537Z,40.57
2022-12-18T16:54:54.821Z,42.42
2022-12-18T16:57:25.350Z,41.39
2022-12-18T16:59:52.893Z,42.51
2022-12-18T17:02:23.372Z,42.91
2022-12-18T17:04:51.066Z,42.53
2022-12-18T17:07:18.380Z,42.26
2022-12-18T17:09:45.744Z,42.27
2022-12-18T17:12:12.982Z,41.91
2022-12-18T17:14:41.704Z,41.55
2022-12-18T17:17:24.471Z,43.68
2022-12-18T17:19:52.698Z,43.31
2022-12-18T17:22:20.220Z,43.10
2022-12-18T17:24:47.533Z,43.41
2022-12-18T17:27:14.996Z,44.50
2022-12-18T17:29:47.741Z,44.48
2022-12-18T17:32:16.182Z,41.93
2022-12-18T17:34:43.649Z,42.02
2022-12-18T17:37:13.875Z,41.86
2022-12-18T17:39:41.354Z,43.42
2022-12-18T17:42:08.675Z,47.10
2022-12-18T17:44:38.223Z,45.52
2022-12-18T17:47:07.032Z,41.73
2022-12-18T17:49:34.505Z,41.16
2022-12-18T17:52:01.845Z,41.07
2022-12-18T17:54:29.259Z,40.56
2022-12-18T17:56:56.815Z,41.00
2022-12-18T17:59:26.563Z,42.72
2022-12-18T18:01:54.021Z,43.26
2022-12-18T18:04:23.140Z,42.16
2022-12-18T18:06:50.396Z,43.62
2022-12-18T18:09:17.794Z,41.50
2022-12-18T18:11:45.069Z,41.57
2022-12-18T18:14:13.580Z,41.48
2022-12-18T18:16:42.028Z,41.41
2022-12-18T18:19:10.197Z,40.07
2022-12-18T18:21:40.512Z,41.35
2022-12-18T18:24:08.768Z,41.36
2022-12-18T18:26:37.923Z,42.06
2022-12-18T18:29:05.987Z,41.33
2022-12-18T18:31:33.415Z,41.64
2022-12-18T18:34:03.041Z,42.01
2022-12-18T18:36:30.334Z,43.41
2022-12-18T18:39:00.546Z,44.27
2022-12-18T18:41:30.623Z,43.76
2022-12-18T18:43:58.109Z,43.12
2022-12-18T18:46:25.488Z,42.35
2022-12-18T18:48:52.844Z,42.70
2022-12-18T18:51:21.377Z,42.95
2022-12-18T18:53:49.815Z,42.08
2022-12-18T18:56:56.738Z,42.44
2022-12-18T18:59:06.450Z,43.20
2022-12-18T19:01:33.823Z,42.29
2022-12-18T19:04:01.082Z,41.41
2022-12-18T19:06:29.885Z,42.49
2022-12-18T19:08:58.415Z,43.28
2022-12-18T19:11:30.619Z,42.31
2022-12-18T19:14:03.020Z,43.88
2022-12-18T19:16:30.405Z,43.65
2022-12-18T19:19:01.973Z,41.96
2022-12-18T19:21:30.473Z,41.66
2022-12-18T19:24:01.343Z,40.43
2022-12-18T19:26:30.125Z,44.30
2022-12-18T19:29:01.387Z,48.15
2022-12-18T19:31:34.771Z,54.24
2022-12-18T19:34:03.562Z,50.69
2022-12-18T19:36:31.320Z,49.02
2022-12-18T19:39:00.184Z,48.35
2022-12-18T19:41:31.260Z,44.48
2022-12-18T19:44:07.859Z,46.11
2022-12-18T19:46:37.886Z,44.52
2022-12-18T19:49:09.142Z,45.07
2022-12-18T19:51:36.519Z,44.97
2022-12-18T19:54:04.009Z,47.72
2022-12-18T19:56:33.484Z,47.59
2022-12-18T19:59:00.679Z,44.85
2022-12-18T20:01:28.214Z,44.78
2022-12-18T20:03:56.847Z,45.06
2022-12-18T20:06:26.578Z,45.63
2022-12-18T20:08:56.815Z,44.99
2022-12-18T20:11:27.762Z,44.99
2022-12-18T20:13:56.300Z,44.61
2022-12-18T20:16:23.400Z,46.26
2022-12-18T20:18:50.727Z,48.44
2022-12-18T20:21:20.655Z,46.55
2022-12-18T20:23:47.927Z,46.55
2022-12-18T20:26:15.074Z,45.66
2022-12-18T20:28:42.253Z,44.79
2022-12-18T20:31:13.512Z,45.83
2022-12-18T20:33:41.904Z,45.19
2022-12-18T20:36:12.679Z,44.53
2022-12-18T20:38:40.182Z,44.71
2022-12-18T20:41:08.216Z,45.35
2022-12-18T20:43:35.489Z,45.25
2022-12-18T20:46:02.722Z,45.23
2022-12-18T20:48:31.788Z,45.74
2022-12-18T20:50:59.466Z,46.42
2022-12-18T20:53:29.223Z,46.90
2022-12-18T20:55:56.414Z,46.82
2022-12-18T20:58:23.596Z,46.43
2022-12-18T21:00:50.874Z,45.38
2022-12-18T21:03:18.216Z,45.89
2022-12-18T21:05:46.889Z,45.50
2022-12-18T21:08:14.227Z,45.09
2022-12-18T21:10:45.125Z,46.20
2022-12-18T21:13:12.655Z,45.55
2022-12-18T21:15:41.552Z,47.27
2022-12-18T21:18:08.821Z,45.95
2022-12-18T21:20:36.108Z,45.13
2022-12-18T21:23:13.200Z,45.81
2022-12-18T21:25:44.042Z,45.41
2022-12-18T21:28:12.903Z,46.30
2022-12-18T21:30:40.319Z,45.67
2022-12-18T21:33:07.533Z,45.34
2022-12-18T21:35:34.850Z,45.31
2022-12-18T21:38:03.860Z,43.46
2022-12-18T21:40:34.384Z,43.70
2022-12-18T21:43:01.756Z,42.75
2022-12-18T21:45:28.931Z,45.32
2022-12-18T21:47:56.284Z,45.12
2022-12-18T21:50:23.664Z,45.49
2022-12-18T21:52:50.945Z,44.20
2022-12-18T21:55:18.258Z,45.01
2022-12-18T21:57:46.917Z,43.92
2022-12-18T22:00:19.062Z,45.97
2022-12-18T22:02:47.838Z,44.78
2022-12-18T22:05:15.297Z,44.03
2022-12-18T22:07:42.569Z,44.39
2022-12-18T22:10:10.214Z,43.82
